Time;durP1;ratioP1;P1;durP2;ratioP2;P2;SDS_P1;SDS_P2;PMS_P1;PMS_P2;Temp;Humidity;BMP_temperature;BMP_pressure;BME280_temperature;BME280_humidity;BME280_pressure;Samples;Min_cycle;Max_cycle;Signal;HPM_P1;HPM_P2
2021/03/06 00:00:53;;;;;;;10.60;3.88;;;;;;;-2.06;85.08;102732.53;5136912;27;20233;-49
2021/03/06 00:03:23;;;;;;;14.52;4.30;;;;;;;-1.98;84.99;102739.47;5134274;27;20222;-47
2021/03/06 00:05:49;;;;;;;11.75;3.72;;;;;;;-2.00;84.12;102734.94;5133469;27;20294;-48
2021/03/06 00:08:16;;;;;;;19.42;4.18;;;;;;;-1.94;84.12;102734.06;5120350;27;20541;-47
2021/03/06 00:10:43;;;;;;;13.02;4.30;;;;;;;-1.85;83.86;102731.75;5135564;27;20397;-51
2021/03/06 00:13:09;;;;;;;10.55;4.18;;;;;;;-1.89;84.33;102734.66;5137511;27;20310;-46
2021/03/06 00:15:36;;;;;;;11.75;4.20;;;;;;;-1.80;83.76;102728.19;5136607;27;20582;-47
2021/03/06 00:18:03;;;;;;;14.23;4.00;;;;;;;-1.81;83.97;102728.91;5121355;27;20547;-47
2021/03/06 00:20:32;;;;;;;13.00;4.20;;;;;;;-1.83;83.91;102729.44;5132911;27;20301;-46
2021/03/06 00:22:58;;;;;;;11.85;4.35;;;;;;;-1.94;83.64;102726.47;5134201;27;20238;-47
2021/03/06 00:25:25;;;;;;;13.05;3.85;;;;;;;-1.99;84.43;102727.53;5137640;27;20206;-47
2021/03/06 00:27:52;;;;;;;11.82;3.70;;;;;;;-2.10;84.58;102728.72;5133950;27;20234;-50
2021/03/06 00:30:20;;;;;;;18.85;4.30;;;;;;;-2.17;85.08;102726.13;5135983;27;20190;-47
2021/03/06 00:32:47;;;;;;;15.73;3.65;;;;;;;-2.10;84.43;102735.41;5130537;27;20521;-49
2021/03/06 00:35:14;;;;;;;8.30;4.05;;;;;;;-2.22;84.83;102729.72;5138386;27;20501;-46
2021/03/06 00:37:42;;;;;;;13.77;3.85;;;;;;;-2.31;85.00;102732.00;5140001;27;20240;-51
2021/03/06 00:40:11;;;;;;;16.77;5.15;;;;;;;-2.18;85.04;102730.31;5136907;27;20233;-49
2021/03/06 00:42:38;;;;;;;10.45;4.38;;;;;;;-2.29;85.02;102729.66;5133109;27;20758;-48
2021/03/06 00:45:06;;;;;;;14.48;4.95;;;;;;;-2.18;84.85;102735.38;5135847;27;20206;-46
2021/03/06 00:47:33;;;;;;;16.00;4.82;;;;;;;-2.26;84.90;102735.13;5132751;27;20231;-48
2021/03/06 00:50:00;;;;;;;14.27;4.85;;;;;;;-2.12;85.33;102735.22;5134977;27;20206;-51
2021/03/06 00:52:27;;;;;;;16.77;5.05;;;;;;;-2.17;84.88;102736.25;5133056;27;20202;-46
2021/03/06 00:54:55;;;;;;;13.23;4.40;;;;;;;-2.15;85.08;102739.91;5136966;27;20309;-50
2021/03/06 00:57:21;;;;;;;22.52;5.97;;;;;;;-2.07;86.50;102730.72;5135608;27;20512;-47
2021/03/06 00:59:48;;;;;;;13.63;4.15;;;;;;;-2.06;85.24;102728.38;5135889;27;20228;-49
2021/03/06 01:02:16;;;;;;;11.40;4.32;;;;;;;-2.18;85.24;102734.44;5134096;27;20525;-49
2021/03/06 01:04:43;;;;;;;9.98;4.07;;;;;;;-2.13;85.33;102729.97;5132718;27;20541;-48
2021/03/06 01:07:10;;;;;;;8.52;4.10;;;;;;;-2.06;84.76;102725.88;5137818;27;20290;-51
2021/03/06 01:09:37;;;;;;;7.45;3.33;;;;;;;-2.24;84.81;102721.97;5135851;27;20658;-47
2021/03/06 01:12:05;;;;;;;11.55;4.75;;;;;;;-2.19;85.16;102712.41;5141034;27;20199;-50
2021/03/06 01:14:32;;;;;;;8.85;4.05;;;;;;;-2.28;85.02;102719.75;5136381;27;20242;-47
2021/03/06 01:16:59;;;;;;;9.45;3.75;;;;;;;-2.28;85.47;102716.31;5137811;27;20285;-47
2021/03/06 01:19:26;;;;;;;10.63;3.60;;;;;;;-2.09;85.51;102717.91;5135955;27;20315;-52
2021/03/06 01:21:52;;;;;;;14.00;4.00;;;;;;;-2.13;85.04;102713.16;5136363;27;20631;-48
2021/03/06 01:24:34;;;;;;;15.85;4.20;;;;;;;-2.18;85.15;102714.22;5124476;27;20242;-50
2021/03/06 01:27:00;;;;;;;18.33;5.07;;;;;;;-2.19;85.68;102712.41;5142554;27;20209;-46
2021/03/06 01:29:29;;;;;;;19.35;4.50;;;;;;;-2.11;85.62;102721.84;5126178;27;20333;-51
2021/03/06 01:31:56;;;;;;;15.90;3.50;;;;;;;-1.97;85.50;102710.00;5136158;27;20547;-52
2021/03/06 01:34:23;;;;;;;13.98;4.65;;;;;;;-2.18;84.91;102714.22;5120265;27;20235;-50
2021/03/06 01:36:50;;;;;;;11.00;4.35;;;;;;;-2.09;85.75;102715.38;5139650;27;20249;-48
2021/03/06 01:39:17;;;;;;;13.75;5.22;;;;;;;-2.23;85.20;102710.19;5136979;27;20223;-49
2021/03/06 01:41:43;;;;;;;13.35;4.50;;;;;;;-2.24;85.28;102709.31;5139777;27;20222;-47
2021/03/06 01:44:11;;;;;;;12.65;3.78;;;;;;;-2.33;85.43;102703.09;5138918;27;20234;-46
2021/03/06 01:46:39;;;;;;;13.63;3.55;;;;;;;-2.29;85.38;102699.31;5139202;27;20210;-47
2021/03/06 01:49:06;;;;;;;9.38;3.53;;;;;;;-2.26;86.30;102698.06;5130337;27;20703;-49
2021/03/06 01:51:33;;;;;;;8.70;3.70;;;;;;;-2.43;85.85;102693.44;5138394;27;20564;-47
2021/03/06 01:54:00;;;;;;;8.13;2.83;;;;;;;-2.59;86.65;102691.53;5138744;27;20317;-49
2021/03/06 01:56:29;;;;;;;11.32;3.58;;;;;;;-2.46;86.06;102686.38;5140409;27;20646;-46
2021/03/06 01:58:56;;;;;;;5.80;2.50;;;;;;;-2.46;86.08;102680.44;5133391;27;20252;-48
2021/03/06 02:01:23;;;;;;;8.60;3.03;;;;;;;-2.65;87.01;102675.59;5140480;27;20246;-49
2021/03/06 02:03:51;;;;;;;10.00;3.20;;;;;;;-2.81;87.42;102681.94;5126085;27;20233;-49
2021/03/06 02:06:19;;;;;;;12.02;3.28;;;;;;;-2.70;87.39;102676.63;5137859;27;20203;-50
2021/03/06 02:08:46;;;;;;;14.75;3.50;;;;;;;-2.74;87.44;102676.94;5138926;27;20561;-47
2021/03/06 02:11:19;;;;;;;6.78;3.30;;;;;;;-2.68;87.53;102680.25;5142370;27;20602;-49
2021/03/06 02:13:54;;;;;;;11.18;3.92;;;;;;;-2.70;88.02;102671.59;5131203;27;20330;-49
2021/03/06 02:16:24;;;;;;;10.65;4.10;;;;;;;-2.61;87.81;102670.19;5138844;27;20197;-51
2021/03/06 02:18:57;;;;;;;6.45;3.00;;;;;;;-2.53;87.07;102668.63;5120120;27;20234;-49
2021/03/06 02:21:34;;;;;;;15.18;3.70;;;;;;;-2.62;87.33;102660.81;5135391;27;20306;-47
2021/03/06 02:24:22;;;;;;;10.93;3.20;;;;;;;-2.62;87.51;102670.91;5123841;27;20222;-49
2021/03/06 02:27:06;;;;;;;10.27;3.05;;;;;;;-2.68;87.03;102667.63;5140451;27;20199;-49
2021/03/06 02:29:39;;;;;;;13.38;3.85;;;;;;;-2.51;87.65;102676.41;5117690;27;20234;-51
2021/03/06 02:32:15;;;;;;;12.85;3.47;;;;;;;-2.12;88.14;102669.44;5135333;27;20205;-49
2021/03/06 02:34:46;;;;;;;14.25;4.15;;;;;;;-2.26;86.22;102669.38;5139965;27;20230;-50
2021/03/06 02:37:14;;;;;;;12.70;4.03;;;;;;;-2.10;85.89;102667.13;5139377;27;20271;-48
2021/03/06 02:39:44;;;;;;;17.05;4.70;;;;;;;-2.12;86.07;102659.31;5133669;27;20233;-47
2021/03/06 02:42:13;;;;;;;8.93;2.90;;;;;;;-2.22;85.89;102661.41;5138272;27;20250;-47
2021/03/06 02:44:43;;;;;;;8.80;3.00;;;;;;;-2.03;85.61;102659.56;5135327;27;20218;-46
2021/03/06 02:47:10;;;;;;;12.25;3.90;;;;;;;-1.98;86.01;102657.59;5138348;27;20199;-46
2021/03/06 02:49:37;;;;;;;10.40;3.10;;;;;;;-1.98;85.82;102653.44;5128938;27;20647;-48
2021/03/06 02:52:04;;;;;;;10.35;3.20;;;;;;;-1.88;86.05;102657.09;5135391;27;20542;-47
2021/03/06 02:54:31;;;;;;;11.10;3.47;;;;;;;-2.02;85.74;102656.31;5134622;27;20250;-47
2021/03/06 02:56:57;;;;;;;8.43;2.95;;;;;;;-1.93;86.65;102652.38;5138186;27;20219;-51
2021/03/06 02:59:38;;;;;;;10.80;3.78;;;;;;;-2.06;86.25;102646.50;5134774;27;20230;-48
2021/03/06 03:02:13;;;;;;;5.60;2.50;;;;;;;-1.93;86.87;102641.34;5137219;27;20329;-48
2021/03/06 03:04:48;;;;;;;5.47;2.63;;;;;;;-1.99;86.61;102636.44;5128065;27;20295;-48
2021/03/06 03:07:21;;;;;;;6.28;2.60;;;;;;;-2.00;86.21;102639.69;5133459;27;20717;-50
2021/03/06 03:09:51;;;;;;;4.68;2.25;;;;;;;-1.94;87.01;102634.47;5137551;27;20310;-49
2021/03/06 03:12:25;;;;;;;8.25;3.13;;;;;;;-1.85;86.22;102643.19;5125468;27;20289;-52
2021/03/06 03:15:04;;;;;;;16.77;2.60;;;;;;;-1.85;86.32;102638.13;5139818;27;20300;-47
2021/03/06 03:17:37;;;;;;;10.70;2.90;;;;;;;-1.69;86.11;102622.28;5125143;27;20218;-46
2021/03/06 03:20:05;;;;;;;6.15;2.40;;;;;;;-1.83;86.00;102624.06;5144198;27;20549;-46
2021/03/06 03:22:36;;;;;;;17.55;2.97;;;;;;;-1.77;86.70;102622.25;5129284;27;20264;-47
2021/03/06 03:25:05;;;;;;;11.27;2.55;;;;;;;-1.82;87.10;102624.94;5137613;27;20194;-47
2021/03/06 03:27:32;;;;;;;5.40;2.45;;;;;;;-1.67;86.68;102625.91;5124819;27;20219;-48
2021/03/06 03:29:59;;;;;;;14.30;3.05;;;;;;;-1.57;86.50;102631.38;5145227;27;20278;-48
2021/03/06 03:32:27;;;;;;;13.70;2.47;;;;;;;-1.47;86.29;102619.78;5125193;27;20226;-47
2021/03/06 03:34:55;;;;;;;8.23;2.42;;;;;;;-1.42;85.96;102623.78;5140450;27;20524;-49
2021/03/06 03:37:22;;;;;;;12.45;3.10;;;;;;;-1.33;85.71;102629.97;5134759;27;20241;-47
2021/03/06 03:39:49;;;;;;;10.15;2.10;;;;;;;-1.32;86.27;102623.25;5137198;27;20260;-46
2021/03/06 03:42:20;;;;;;;7.00;2.90;;;;;;;-1.27;86.11;102614.59;5131964;27;20318;-49
2021/03/06 03:44:47;;;;;;;7.50;2.58;;;;;;;-1.18;86.07;102604.66;5137350;27;20230;-50
2021/03/06 03:47:16;;;;;;;4.75;1.73;;;;;;;-1.08;85.63;102610.06;5137552;27;20281;-50
2021/03/06 03:49:43;;;;;;;7.40;2.25;;;;;;;-1.13;86.03;102609.53;5137248;27;20306;-48
2021/03/06 03:52:11;;;;;;;8.75;2.13;;;;;;;-1.14;86.71;102601.75;5137687;27;20502;-47
2021/03/06 03:54:39;;;;;;;11.90;2.92;;;;;;;-1.17;86.60;102616.59;5135618;27;20252;-49
2021/03/06 03:57:08;;;;;;;11.70;2.35;;;;;;;-1.06;86.34;102615.31;5137494;27;20570;-46
2021/03/06 03:59:35;;;;;;;7.10;2.20;;;;;;;-1.02;86.75;102618.41;5135846;27;20644;-49
2021/03/06 04:02:01;;;;;;;5.47;2.00;;;;;;;-0.99;86.29;102617.84;5137517;27;20222;-47
2021/03/06 04:04:31;;;;;;;5.60;1.75;;;;;;;-1.01;87.17;102622.78;5135462;27;20238;-47
2021/03/06 04:06:59;;;;;;;8.48;1.73;;;;;;;-0.97;87.27;102626.56;5137432;27;20285;-51
2021/03/06 04:09:28;;;;;;;6.00;1.48;;;;;;;-0.98;87.62;102620.59;5135677;27;20321;-49
2021/03/06 04:11:55;;;;;;;7.38;2.38;;;;;;;-0.85;88.51;102632.16;5137103;27;20226;-49
2021/03/06 04:14:22;;;;;;;12.65;2.15;;;;;;;-0.85;88.39;102627.09;5133769;27;20628;-46
2021/03/06 04:16:48;;;;;;;9.60;2.20;;;;;;;-0.79;88.46;102617.69;5137381;27;20202;-49
2021/03/06 04:19:15;;;;;;;9.30;1.90;;;;;;;-0.78;88.46;102618.59;5135459;27;20719;-47
2021/03/06 04:21:42;;;;;;;14.73;1.95;;;;;;;-0.74;88.80;102614.06;5137022;27;20649;-48
2021/03/06 04:24:09;;;;;;;7.78;2.22;;;;;;;-0.72;89.31;102617.69;5135254;27;20253;-49
2021/03/06 04:26:50;;;;;;;7.05;1.70;;;;;;;-0.65;89.94;102616.78;5136948;27;20504;-48
2021/03/06 04:29:17;;;;;;;8.60;2.88;;;;;;;-0.66;89.85;102620.03;5134803;27;20313;-47
2021/03/06 04:31:44;;;;;;;15.00;2.35;;;;;;;-0.68;90.13;102624.00;5136732;27;20198;-49
2021/03/06 04:34:11;;;;;;;4.25;0.90;;;;;;;-0.72;90.39;102620.22;5116484;27;20651;-47
2021/03/06 04:36:37;;;;;;;11.60;2.38;;;;;;;-0.60;91.33;102630.91;5136909;27;20202;-49
2021/03/06 04:39:05;;;;;;;10.38;1.92;;;;;;;-0.73;92.01;102627.63;5135387;27;20238;-50
2021/03/06 04:41:32;;;;;;;7.70;2.00;;;;;;;-0.66;92.28;102626.72;5136599;27;20310;-48
2021/03/06 04:43:59;;;;;;;9.60;2.72;;;;;;;-0.69;92.43;102628.19;5134598;27;20245;-51
2021/03/06 04:46:26;;;;;;;12.85;3.35;;;;;;;-0.54;93.11;102630.69;5136673;27;20205;-48
2021/03/06 04:48:53;;;;;;;9.13;2.15;;;;;;;-0.53;93.06;102632.50;5134936;27;20261;-49
2021/03/06 04:51:20;;;;;;;9.52;3.30;;;;;;;-0.55;92.89;102627.25;5136843;27;20498;-48
2021/03/06 04:53:46;;;;;;;12.63;3.20;;;;;;;-0.51;93.18;102627.63;5135206;27;20241;-48
2021/03/06 04:56:13;;;;;;;7.45;1.90;;;;;;;-0.57;93.17;102625.25;5136201;27;20598;-47
2021/03/06 04:58:39;;;;;;;4.28;2.10;;;;;;;-0.51;93.48;102625.97;5134842;27;20317;-48
2021/03/06 05:01:07;;;;;;;7.22;2.60;;;;;;;-0.65;93.28;102628.53;5135672;28;20635;-48
2021/03/06 05:03:33;;;;;;;13.50;4.65;;;;;;;-0.49;93.55;102624.53;5135080;27;20234;-46
2021/03/06 05:06:00;;;;;;;7.50;3.63;;;;;;;-0.48;93.17;102626.34;5136483;28;20223;-49
2021/03/06 05:08:27;;;;;;;11.65;3.30;;;;;;;-0.42;93.32;102627.06;5134897;27;20313;-49
2021/03/06 05:10:53;;;;;;;7.28;3.72;;;;;;;-0.44;93.43;102627.59;5136664;28;20191;-48
2021/03/06 05:13:20;;;;;;;10.05;4.75;;;;;;;-0.34;93.82;102621.97;5135121;27;20230;-48
2021/03/06 05:15:46;;;;;;;6.07;2.80;;;;;;;-0.32;93.67;102628.09;5136149;28;20201;-47
2021/03/06 05:18:14;;;;;;;6.93;2.90;;;;;;;-0.38;93.46;102619.78;5134949;27;20296;-46
2021/03/06 05:20:41;;;;;;;9.70;3.20;;;;;;;-0.34;93.57;102619.44;5136287;28;20205;-48
2021/03/06 05:23:08;;;;;;;8.52;4.05;;;;;;;-0.37;93.68;102627.59;5134988;27;20323;-51
2021/03/06 05:25:34;;;;;;;12.88;4.05;;;;;;;-0.43;93.81;102625.25;5136253;28;20284;-47
2021/03/06 05:28:01;;;;;;;9.85;3.67;;;;;;;-0.39;94.03;102625.59;5134833;27;20230;-46
2021/03/06 05:30:28;;;;;;;13.90;4.55;;;;;;;-0.36;94.23;102636.13;5136385;28;20195;-46
2021/03/06 05:32:54;;;;;;;16.30;4.78;;;;;;;-0.32;94.48;102634.09;5134875;27;20233;-49
2021/03/06 05:35:25;;;;;;;13.90;4.18;;;;;;;-0.35;94.14;102640.47;5135963;28;20195;-48
2021/03/06 05:37:51;;;;;;;13.98;5.20;;;;;;;-0.20;94.27;102636.25;5134661;27;20237;-51
2021/03/06 05:40:18;;;;;;;20.25;6.25;;;;;;;-0.12;94.09;102642.22;5136258;28;20281;-50
2021/03/06 05:42:46;;;;;;;12.18;5.57;;;;;;;-0.22;94.28;102635.16;5134287;27;20647;-48
2021/03/06 05:45:16;;;;;;;10.55;5.07;;;;;;;-0.35;94.61;102633.75;5136115;28;20211;-49
2021/03/06 05:47:43;;;;;;;12.68;5.50;;;;;;;-0.26;94.55;102643.16;5134892;27;20245;-48
2021/03/06 05:50:10;;;;;;;12.57;5.45;;;;;;;-0.22;94.48;102633.53;5135888;28;20202;-49
2021/03/06 05:52:40;;;;;;;18.73;6.55;;;;;;;-0.20;94.53;102629.53;5134577;27;20659;-49
2021/03/06 05:55:12;;;;;;;12.13;5.03;;;;;;;-0.24;94.39;102642.59;5135926;27;20205;-48
2021/03/06 05:57:54;;;;;;;14.95;4.72;;;;;;;-0.15;94.45;102641.13;5138453;27;20578;-48
2021/03/06 06:00:21;;;;;;;14.30;5.57;;;;;;;-0.17;93.90;102645.13;5139761;27;20290;-52
2021/03/06 06:02:55;;;;;;;12.75;5.28;;;;;;;-0.05;94.29;102642.19;5138556;27;20608;-50
2021/03/06 06:05:23;;;;;;;10.00;4.70;;;;;;;-0.05;93.92;102644.72;5139627;27;20240;-46
2021/03/06 06:07:51;;;;;;;20.50;5.70;;;;;;;0.04;94.23;102647.44;5138320;27;20234;-47
2021/03/06 06:10:21;;;;;;;15.10;5.70;;;;;;;0.08;93.75;102641.94;5139743;27;20289;-49
2021/03/06 06:12:47;;;;;;;14.05;5.13;;;;;;;0.01;93.85;102645.44;5123020;27;20306;-47
2021/03/06 06:15:15;;;;;;;17.15;5.75;;;;;;;0.10;94.06;102640.53;5138364;27;20513;-47
2021/03/06 06:17:41;;;;;;;12.18;5.95;;;;;;;0.05;94.20;102639.97;5137899;27;20273;-47
2021/03/06 06:20:09;;;;;;;14.55;5.60;;;;;;;0.09;93.96;102639.59;5139389;27;20208;-48
2021/03/06 06:22:36;;;;;;;11.77;5.80;;;;;;;0.17;93.71;102639.56;5138101;27;20233;-47
2021/03/06 06:25:04;;;;;;;19.77;6.03;;;;;;;0.15;93.73;102641.03;5139065;27;20198;-51
2021/03/06 06:27:32;;;;;;;13.90;5.97;;;;;;;0.09;93.53;102649.75;5138023;27;20244;-48
2021/03/06 06:30:00;;;;;;;16.90;6.05;;;;;;;0.10;93.30;102650.66;5138974;27;20615;-47
2021/03/06 06:32:28;;;;;;;19.52;6.00;;;;;;;0.03;93.33;102649.03;5138360;27;20197;-49
2021/03/06 06:35:00;;;;;;;13.75;5.45;;;;;;;0.11;93.59;102647.41;5138797;27;20551;-46
2021/03/06 06:37:28;;;;;;;16.02;5.85;;;;;;;0.07;93.26;102646.16;5138072;27;20295;-49
2021/03/06 06:39:54;;;;;;;17.63;6.25;;;;;;;0.09;93.58;102644.69;5138943;27;20593;-50
2021/03/06 06:42:30;;;;;;;10.68;5.32;;;;;;;0.08;93.30;102653.03;5137691;27;20215;-49
2021/03/06 06:44:58;;;;;;;13.07;5.78;;;;;;;0.20;93.38;102653.50;5138780;27;20260;-47
2021/03/06 06:47:33;;;;;;;20.38;6.47;;;;;;;0.00;93.17;102653.78;5137796;27;20648;-50
2021/03/06 06:50:00;;;;;;;11.55;4.93;;;;;;;0.17;93.58;102655.72;5138846;27;20514;-47
2021/03/06 06:52:35;;;;;;;16.20;6.25;;;;;;;0.20;92.99;102653.50;5138093;27;20504;-50
2021/03/06 06:55:02;;;;;;;18.73;5.50;;;;;;;0.28;93.09;102659.47;5138523;27;20222;-49
2021/03/06 06:57:29;;;;;;;13.85;5.53;;;;;;;0.29;93.39;102661.28;5125270;27;20222;-48
2021/03/06 06:59:58;;;;;;;12.65;6.80;;;;;;;0.34;93.46;102665.25;5137706;27;20233;-47
2021/03/06 07:02:25;;;;;;;16.20;5.20;;;;;;;0.45;93.55;102673.19;5128043;27;20652;-47
2021/03/06 07:04:53;;;;;;;15.35;6.68;;;;;;;0.49;93.20;102672.78;5138081;27;20234;-51
2021/03/06 07:07:22;;;;;;;22.35;6.68;;;;;;;0.73;93.60;102673.75;5126915;27;20256;-51
2021/03/06 07:10:05;;;;;;;12.40;5.90;;;;;;;0.66;93.07;102678.16;5137450;27;20666;-46
2021/03/06 07:12:33;;;;;;;13.82;5.57;;;;;;;0.57;93.25;102678.75;5121237;27;20205;-46
2021/03/06 07:15:01;;;;;;;20.88;6.28;;;;;;;0.73;93.17;102677.22;5139698;27;20217;-48
2021/03/06 07:17:37;;;;;;;14.20;5.75;;;;;;;0.80;92.46;102688.97;5137184;27;20240;-47
2021/03/06 07:20:06;;;;;;;19.45;6.25;;;;;;;0.96;93.05;102688.16;5138301;27;20199;-48
2021/03/06 07:22:33;;;;;;;15.15;6.30;;;;;;;0.84;92.51;102691.13;5137048;27;20223;-49
2021/03/06 07:25:00;;;;;;;18.92;6.43;;;;;;;1.00;92.73;102686.13;5136183;27;20209;-47
2021/03/06 07:27:26;;;;;;;13.85;5.50;;;;;;;0.97;92.40;102687.41;5136532;27;20222;-48
2021/03/06 07:29:54;;;;;;;19.02;4.80;;;;;;;1.02;92.32;102683.75;5137664;27;20569;-50
2021/03/06 07:32:26;;;;;;;12.10;4.70;;;;;;;1.04;92.09;102689.91;5136491;27;20282;-48
2021/03/06 07:34:54;;;;;;;10.55;5.00;;;;;;;1.06;92.46;102689.34;5137309;27;20265;-48
2021/03/06 07:37:21;;;;;;;12.77;5.25;;;;;;;1.07;92.38;102690.22;5136246;27;20198;-46
2021/03/06 07:39:50;;;;;;;18.98;5.00;;;;;;;1.11;92.19;102691.47;5137529;27;20227;-51
2021/03/06 07:42:26;;;;;;;24.60;5.65;;;;;;;1.18;92.31;102692.31;5136499;27;20218;-47
2021/03/06 07:44:55;;;;;;;17.50;5.30;;;;;;;1.21;92.36;102686.69;5137188;27;20230;-48
2021/03/06 07:47:24;;;;;;;11.45;4.93;;;;;;;1.29;92.18;102695.16;5136034;27;20759;-48
2021/03/06 07:49:54;;;;;;;12.17;4.90;;;;;;;1.37;92.17;102694.38;5137441;27;20352;-46
2021/03/06 07:52:21;;;;;;;19.88;5.78;;;;;;;1.42;92.28;102697.41;5136072;27;20448;-47
2021/03/06 07:54:48;;;;;;;12.53;4.70;;;;;;;1.43;92.13;102694.16;5136998;27;20318;-49
2021/03/06 07:57:21;;;;;;;20.47;5.00;;;;;;;1.43;92.27;102689.06;5130780;27;20555;-48
2021/03/06 07:59:49;;;;;;;18.15;5.10;;;;;;;1.55;92.73;102694.59;5137399;27;20553;-48
2021/03/06 08:02:37;;;;;;;13.30;4.27;;;;;;;1.63;92.65;102703.06;5135967;27;20257;-46
2021/03/06 08:05:06;;;;;;;20.20;5.43;;;;;;;1.66;92.67;102704.31;5136875;27;20448;-47
2021/03/06 08:07:42;;;;;;;21.03;4.87;;;;;;;1.71;92.32;102713.34;5135692;27;20571;-50
2021/03/06 08:10:10;;;;;;;20.17;4.50;;;;;;;1.77;92.28;102710.56;5137214;27;20471;-48
2021/03/06 08:12:38;;;;;;;15.57;4.17;;;;;;;1.86;92.14;102708.09;5136077;27;20521;-48
2021/03/06 08:15:29;;;;;;;14.47;4.37;;;;;;;1.90;91.96;102712.81;5136793;27;20433;-47
2021/03/06 08:17:57;;;;;;;9.60;3.83;;;;;;;1.92;92.41;102726.59;5135472;27;20449;-50
2021/03/06 08:20:29;;;;;;;20.20;4.80;;;;;;;1.91;92.87;102722.25;5136479;27;20439;-47
2021/03/06 08:23:21;;;;;;;21.17;4.57;;;;;;;1.97;93.02;102717.81;5135852;27;20452;-49
2021/03/06 08:25:50;;;;;;;27.00;7.00;;;;;;;2.09;93.00;102718.22;5116051;28;20461;-47
2021/03/06 08:28:24;;;;;;;24.57;5.70;;;;;;;2.06;92.94;102717.91;5114786;28;20481;-48
2021/03/06 08:30:51;;;;;;;15.33;4.77;;;;;;;2.13;92.67;102724.53;5116508;28;20526;-47
2021/03/06 08:33:20;;;;;;;18.33;5.20;;;;;;;2.25;92.84;102720.78;5127383;27;20491;-49
2021/03/06 08:35:47;;;;;;;15.07;4.87;;;;;;;2.27;92.13;102724.38;5136393;27;20457;-48
2021/03/06 08:38:38;;;;;;;21.43;4.60;;;;;;;2.29;92.11;102729.63;5135650;27;20799;-49
2021/03/06 08:41:05;;;;;;;16.47;5.40;;;;;;;2.42;92.29;102721.69;5116283;27;20442;-48
2021/03/06 08:43:31;;;;;;;16.40;4.63;;;;;;;2.47;91.92;102719.59;5135757;27;20535;-49
2021/03/06 08:45:58;;;;;;;17.43;5.60;;;;;;;2.55;91.67;102724.78;5136407;27;20435;-49
2021/03/06 08:48:26;;;;;;;19.50;5.20;;;;;;;2.75;91.31;102720.88;5134829;27;20921;-46
2021/03/06 08:50:53;;;;;;;17.60;4.40;;;;;;;2.87;90.87;102726.34;5136623;27;20434;-46
2021/03/06 08:53:20;;;;;;;17.40;5.20;;;;;;;2.93;90.50;102726.09;5135512;27;20454;-46
2021/03/06 08:55:48;;;;;;;21.80;4.07;;;;;;;3.03;89.41;102723.75;5134138;27;20871;-48
2021/03/06 08:58:18;;;;;;;15.27;3.90;;;;;;;2.98;89.52;102727.50;5132790;27;20507;-48
2021/03/06 09:00:47;;;;;;;13.23;4.37;;;;;;;2.98;89.79;102730.03;5135054;28;20427;-51
2021/03/06 09:03:17;;;;;;;23.73;4.43;;;;;;;3.01;90.13;102726.88;5132089;27;20493;-48
2021/03/06 09:05:46;;;;;;;10.47;3.97;;;;;;;2.95;90.69;102729.72;5134028;28;20483;-47
2021/03/06 09:08:13;;;;;;;9.90;3.30;;;;;;;2.90;90.96;102736.88;5129228;27;20498;-50
2021/03/06 09:10:42;;;;;;;6.53;3.03;;;;;;;2.87;91.03;102736.53;5134982;28;20488;-47
2021/03/06 09:13:15;;;;;;;9.93;3.90;;;;;;;3.04;91.92;102733.22;5133314;27;20750;-51
2021/03/06 09:15:45;;;;;;;8.40;3.43;;;;;;;2.92;91.25;102739.59;5134239;28;20543;-47
2021/03/06 09:18:13;;;;;;;9.07;3.47;;;;;;;3.14;91.40;102741.81;5133058;27;20566;-46
2021/03/06 09:20:46;;;;;;;16.93;3.50;;;;;;;3.15;90.24;102751.28;5133946;28;20460;-47
2021/03/06 09:23:33;;;;;;;12.97;3.93;;;;;;;3.31;90.26;102741.00;5132770;27;20462;-51
2021/03/06 09:26:04;;;;;;;12.93;3.40;;;;;;;3.30;90.26;102747.78;5134173;28;20554;-48
2021/03/06 09:28:31;;;;;;;8.53;3.13;;;;;;;3.34;90.06;102744.78;5133296;27;20480;-48
2021/03/06 09:30:59;;;;;;;7.00;3.53;;;;;;;3.22;90.20;102751.16;5134060;27;20463;-49
2021/03/06 09:33:31;;;;;;;16.60;3.67;;;;;;;3.16;89.70;102750.53;5137832;27;20916;-50
2021/03/06 09:36:02;;;;;;;6.30;2.83;;;;;;;3.08;90.09;102744.66;5138177;27;20439;-48
2021/03/06 09:38:42;;;;;;;5.57;2.60;;;;;;;3.05;90.95;102737.59;5137271;27;20831;-47
2021/03/06 09:41:09;;;;;;;10.30;3.90;;;;;;;3.15;91.56;102739.44;5137970;27;20471;-52
2021/03/06 09:43:37;;;;;;;15.27;3.37;;;;;;;3.13;91.30;102740.03;5137233;27;20506;-49
2021/03/06 09:46:12;;;;;;;14.50;3.90;;;;;;;3.16;92.08;102743.78;5138620;27;20431;-51
2021/03/06 09:48:47;;;;;;;5.20;2.43;;;;;;;3.00;91.65;102738.75;5138432;27;20461;-50
2021/03/06 09:51:15;;;;;;;6.07;3.10;;;;;;;3.03;91.68;102735.63;5140256;27;20411;-47
2021/03/06 09:53:41;;;;;;;5.97;3.23;;;;;;;3.08;91.48;102739.56;5138250;27;20761;-47
2021/03/06 09:56:11;;;;;;;8.80;3.80;;;;;;;3.19;91.50;102735.56;5139552;27;20452;-47
2021/03/06 09:58:38;;;;;;;11.20;3.70;;;;;;;3.29;90.41;102738.31;5138221;27;20451;-50
2021/03/06 10:01:14;;;;;;;9.33;3.90;;;;;;;3.33;90.62;102740.44;5139862;27;20633;-47
2021/03/06 10:03:41;;;;;;;11.93;4.13;;;;;;;3.37;89.97;102745.13;5136752;27;20462;-49
2021/03/06 10:06:08;;;;;;;7.73;3.83;;;;;;;3.42;89.51;102734.44;5139094;27;20464;-49
2021/03/06 10:08:38;;;;;;;13.63;4.53;;;;;;;3.54;89.41;102730.59;5137830;27;20476;-48
2021/03/06 10:11:05;;;;;;;17.40;4.53;;;;;;;3.50;88.07;102734.50;5139766;27;20463;-48
2021/03/06 10:13:32;;;;;;;14.70;4.97;;;;;;;3.44;87.94;102738.09;5138099;27;20781;-48
2021/03/06 10:15:59;;;;;;;11.03;4.80;;;;;;;3.44;87.57;102733.88;5139062;27;20889;-51
2021/03/06 10:18:28;;;;;;;9.60;4.00;;;;;;;3.42;86.89;102729.34;5137147;27;20507;-47
2021/03/06 10:20:56;;;;;;;13.13;4.43;;;;;;;3.42;86.89;102722.59;5139147;27;20456;-46
2021/03/06 10:23:33;;;;;;;14.30;4.50;;;;;;;3.65;86.97;102722.41;5137722;27;20761;-49
2021/03/06 10:26:21;;;;;;;12.83;4.00;;;;;;;3.81;85.66;102726.50;5139001;27;20483;-53
2021/03/06 10:28:49;;;;;;;14.43;4.60;;;;;;;3.89;85.20;102727.25;5137687;27;20480;-49
2021/03/06 10:31:30;;;;;;;8.70;3.63;;;;;;;3.94;83.04;102726.06;5139037;27;20479;-51
2021/03/06 10:33:58;;;;;;;10.80;4.10;;;;;;;3.93;83.28;102731.94;5119219;27;20484;-50
2021/03/06 10:36:25;;;;;;;12.60;4.60;;;;;;;4.09;82.89;102734.38;5138728;27;20943;-50
2021/03/06 10:39:17;;;;;;;8.57;3.17;;;;;;;4.06;81.83;102734.09;5135948;27;20490;-50
2021/03/06 10:41:44;;;;;;;8.67;3.40;;;;;;;3.98;81.20;102743.53;5138280;27;20830;-49
2021/03/06 10:44:11;;;;;;;10.60;4.20;;;;;;;4.07;81.56;102741.00;5126069;27;20495;-48
2021/03/06 10:46:38;;;;;;;10.40;3.80;;;;;;;3.92;81.49;102746.38;5139007;27;20452;-48
2021/03/06 10:49:07;;;;;;;8.90;3.33;;;;;;;3.85;81.21;102736.28;5136993;27;20454;-51
2021/03/06 10:51:43;;;;;;;11.43;2.70;;;;;;;3.74;80.64;102739.41;5138601;27;20456;-50
2021/03/06 10:54:11;;;;;;;9.50;3.60;;;;;;;3.73;80.68;102730.84;5125815;27;20503;-47
2021/03/06 10:56:38;;;;;;;7.30;2.80;;;;;;;3.77;81.15;102729.50;5138321;27;20464;-53
2021/03/06 10:59:06;;;;;;;8.00;2.97;;;;;;;3.83;80.71;102732.66;5136238;27;20480;-51
2021/03/06 11:01:44;;;;;;;12.17;3.10;;;;;;;3.82;80.36;102732.50;5137484;27;20535;-52
2021/03/06 11:04:24;;;;;;;6.53;2.13;;;;;;;3.78;80.53;102727.09;5115627;28;20506;-49
2021/03/06 11:06:55;;;;;;;8.10;2.63;;;;;;;3.79;81.05;102720.31;5117774;28;20432;-51
2021/03/06 11:09:28;;;;;;;7.10;2.77;;;;;;;3.70;79.84;102720.28;5105622;28;20455;-48
2021/03/06 11:11:55;;;;;;;11.00;2.63;;;;;;;3.74;79.66;102722.44;5117764;28;20453;-49
2021/03/06 11:14:24;;;;;;;5.20;2.60;;;;;;;3.72;79.14;102730.69;5115860;28;20566;-49
2021/03/06 11:16:51;;;;;;;5.33;1.40;;;;;;;3.68;78.58;102728.56;5117616;28;20434;-48
2021/03/06 11:19:18;;;;;;;7.03;1.73;;;;;;;3.75;77.61;102725.91;5112158;27;20457;-47
2021/03/06 11:21:46;;;;;;;6.73;1.70;;;;;;;3.76;78.02;102727.69;5136472;27;20482;-48
2021/03/06 11:24:12;;;;;;;9.20;2.10;;;;;;;3.78;78.77;102718.53;5131707;27;20896;-50
2021/03/06 11:26:39;;;;;;;8.10;1.97;;;;;;;3.92;79.15;102725.94;5126139;27;20816;-48
2021/03/06 11:29:06;;;;;;;7.77;2.17;;;;;;;4.01;77.87;102725.94;5126829;27;20501;-49
2021/03/06 11:31:51;;;;;;;9.07;2.40;;;;;;;4.03;77.60;102726.09;5125752;27;20438;-53
2021/03/06 11:34:18;;;;;;;10.53;3.00;;;;;;;4.04;77.63;102738.13;5122435;27;20518;-54